Time;durP1;ratioP1;P1;durP2;ratioP2;P2;SDS_P1;SDS_P2;PMS_P1;PMS_P2;Temp;Humidity;BMP_temperature;BMP_pressure;BME280_temperature;BME280_humidity;BME280_pressure;Samples;Min_cycle;Max_cycle;Signal;HPM_P1;HPM_P2
2023/05/25 00:01:43;;;;;;;17.05;4.00;;;8.40;99.90;;;6.68;100.00;98246.97;5007519;28;20556;-73
2023/05/25 00:04:15;;;;;;;13.82;4.00;;;8.30;99.90;;;6.94;100.00;98252.56;5004667;28;20112;-73
2023/05/25 00:06:46;;;;;;;18.00;5.07;;;8.30;99.90;;;7.04;100.00;98260.09;4992120;28;20691;-73
2023/05/25 00:09:16;;;;;;;13.38;3.75;;;8.30;99.90;;;6.87;100.00;98244.91;4994704;28;20684;-73
2023/05/25 00:11:44;;;;;;;11.45;3.70;;;8.30;99.90;;;6.54;100.00;98242.88;5009624;28;20128;-73
2023/05/25 00:14:12;;;;;;;12.73;4.50;;;8.20;99.90;;;6.30;100.00;98244.97;5008924;28;20046;-73
2023/05/25 00:16:39;;;;;;;14.57;4.15;;;8.00;99.90;;;6.37;100.00;98249.16;4988047;28;20992;-72
2023/05/25 00:19:09;;;;;;;12.38;3.40;;;8.00;99.90;;;6.47;100.00;98260.19;5005413;28;20068;-73
2023/05/25 00:21:40;;;;;;;18.05;4.53;;;7.90;99.90;;;6.38;100.00;98255.16;5000145;28;20058;-74
2023/05/25 00:24:07;;;;;;;13.40;4.38;;;7.90;99.90;;;6.48;100.00;98254.16;4989486;28;20041;-73
2023/05/25 00:26:34;;;;;;;15.02;3.95;;;7.80;99.90;;;6.49;100.00;98251.53;4989763;28;20057;-73
2023/05/25 00:29:05;;;;;;;10.82;3.63;;;7.90;99.90;;;6.24;100.00;98253.63;5005039;28;20050;-73
2023/05/25 00:31:35;;;;;;;12.65;3.83;;;7.90;99.90;;;6.20;100.00;98256.28;4983148;28;20548;-72
2023/05/25 00:34:03;;;;;;;16.95;4.43;;;7.80;99.90;;;6.21;100.00;98261.41;4990716;28;20053;-73
2023/05/25 00:36:30;;;;;;;13.02;3.90;;;7.70;99.90;;;6.15;100.00;98255.50;4999191;28;20117;-74
2023/05/25 00:38:57;;;;;;;15.63;4.40;;;7.60;99.90;;;6.01;100.00;98256.53;5002964;28;20050;-72
2023/05/25 00:41:26;;;;;;;12.68;4.28;;;7.60;99.90;;;5.94;100.00;98256.63;5003504;28;20078;-74
2023/05/25 00:43:53;;;;;;;14.88;4.18;;;7.50;99.90;;;5.97;100.00;98259.16;4986959;28;20109;-73
2023/05/25 00:46:21;;;;;;;14.48;4.38;;;7.40;99.90;;;6.14;100.00;98262.38;5002841;28;20068;-74
2023/05/25 00:48:55;;;;;;;15.52;4.55;;;7.50;99.90;;;6.27;100.00;98265.63;5003393;28;20050;-73
2023/05/25 00:51:23;;;;;;;14.63;4.13;;;7.50;99.90;;;6.39;100.00;98270.63;4988777;28;20046;-73
2023/05/25 00:53:50;;;;;;;12.45;4.18;;;7.60;99.90;;;6.24;100.00;98260.53;4987618;28;20050;-72
2023/05/25 00:56:22;;;;;;;12.73;4.32;;;7.60;99.90;;;6.35;100.00;98266.38;4986761;28;20082;-73
2023/05/25 00:58:54;;;;;;;9.73;4.07;;;7.60;99.90;;;6.35;100.00;98261.22;4989301;28;20097;-73
2023/05/25 01:01:26;;;;;;;15.35;4.45;;;7.60;99.90;;;6.37;100.00;98266.38;5002764;28;20124;-73
2023/05/25 01:03:56;;;;;;;14.35;4.50;;;7.70;99.90;;;6.32;100.00;98260.41;4984177;28;20045;-74
2023/05/25 01:06:30;;;;;;;16.05;5.18;;;7.70;99.90;;;6.22;100.00;98270.84;4986197;28;20050;-73
2023/05/25 01:09:03;;;;;;;16.85;4.43;;;7.60;99.90;;;6.32;100.00;98269.00;5008488;28;20060;-74
2023/05/25 01:11:36;;;;;;;13.73;4.55;;;7.60;99.90;;;6.32;100.00;98274.16;4995659;28;20045;-73
2023/05/25 01:14:03;;;;;;;16.30;4.55;;;7.60;99.90;;;6.28;100.00;98262.19;4983208;28;20153;-73
2023/05/25 01:16:31;;;;;;;20.42;5.03;;;7.60;99.90;;;6.26;100.00;98271.66;4993886;28;20078;-74
2023/05/25 01:18:58;;;;;;;12.93;4.40;;;7.60;99.90;;;6.28;100.00;98272.50;4987028;28;20137;-73
2023/05/25 01:21:36;;;;;;;13.40;4.22;;;7.60;99.90;;;6.31;100.00;98284.50;5009341;28;20169;-73
2023/05/25 01:24:44;;;;;;;14.52;4.75;;;7.60;99.90;;;6.45;100.00;98279.97;4991897;28;20049;-75
2023/05/25 01:27:37;;;;;;;17.42;4.13;;;7.70;99.90;;;6.42;100.00;98275.72;4919534;29;20135;-73
2023/05/25 01:30:10;;;;;;;13.73;3.83;;;7.70;99.90;;;6.41;100.00;98276.63;4986577;28;20080;-73
2023/05/25 01:32:37;;;;;;;16.80;3.72;;;7.70;99.90;;;6.37;100.00;98274.94;5006027;28;20802;-72
2023/05/25 01:35:05;;;;;;;16.90;4.82;;;7.70;99.90;;;6.38;100.00;98273.22;4996248;28;20049;-73
2023/05/25 01:37:44;;;;;;;18.25;5.15;;;7.70;99.90;;;6.33;100.00;98273.28;5010694;28;20046;-73
2023/05/25 01:40:13;;;;;;;18.80;5.22;;;7.70;99.90;;;6.38;100.00;98283.53;4998421;28;20112;-73
2023/05/25 01:42:40;;;;;;;11.23;4.22;;;7.70;99.90;;;6.21;100.00;98279.47;4998790;28;20070;-73
2023/05/25 01:45:10;;;;;;;13.25;4.25;;;7.70;99.90;;;6.15;100.00;98283.84;5005352;28;20489;-73
2023/05/25 01:48:06;;;;;;;12.95;4.25;;;7.70;99.90;;;5.96;100.00;98288.41;5008313;28;20053;-73
2023/05/25 01:50:44;;;;;;;10.82;4.20;;;7.60;99.90;;;6.02;100.00;98290.88;5011590;28;20048;-73
2023/05/25 01:53:21;;;;;;;14.40;4.25;;;7.50;99.90;;;5.77;100.00;98287.72;4997335;28;20438;-72
2023/05/25 01:55:59;;;;;;;13.75;4.72;;;7.40;99.90;;;5.75;100.00;98294.66;4993980;28;20129;-73
2023/05/25 01:58:31;;;;;;;14.95;4.18;;;7.30;99.90;;;5.80;100.00;98309.16;4993460;28;20045;-72
2023/05/25 02:00:59;;;;;;;18.67;4.32;;;7.30;99.90;;;5.70;100.00;98309.28;4990108;28;20571;-73
2023/05/25 02:03:27;;;;;;;16.73;5.18;;;7.20;99.90;;;5.61;100.00;98315.38;5010847;28;20041;-72
2023/05/25 02:05:56;;;;;;;15.93;4.40;;;7.20;99.90;;;5.79;100.00;98315.19;5004374;28;20762;-73
2023/05/25 02:08:23;;;;;;;16.38;4.40;;;7.20;99.90;;;5.79;100.00;98304.03;5005369;28;20124;-72
2023/05/25 02:10:51;;;;;;;15.63;4.90;;;7.20;99.90;;;5.60;100.00;98308.53;5007083;28;20061;-72
2023/05/25 02:13:18;;;;;;;12.13;4.38;;;7.20;99.90;;;5.57;100.00;98312.00;5001140;28;20093;-72
2023/05/25 02:15:45;;;;;;;13.95;4.65;;;7.10;99.90;;;5.64;100.00;98311.06;4989736;28;20046;-72
2023/05/25 02:18:12;;;;;;;9.82;3.53;;;7.10;99.90;;;5.69;100.00;98307.59;4989488;28;20104;-72
2023/05/25 02:20:39;;;;;;;15.38;4.25;;;7.10;99.90;;;5.89;100.00;98304.78;4990338;28;20050;-72
2023/05/25 02:23:08;;;;;;;13.75;4.35;;;7.10;99.90;;;5.97;100.00;98305.56;4992866;28;20046;-71
2023/05/25 02:25:35;;;;;;;14.35;3.65;;;7.20;99.90;;;5.77;100.00;98295.44;4987018;28;20098;-72
2023/05/25 02:28:03;;;;;;;15.98;4.97;;;7.30;99.90;;;5.98;100.00;98296.97;4989862;28;20158;-72
2023/05/25 02:30:30;;;;;;;11.38;3.63;;;7.30;99.90;;;6.04;100.00;98302.03;4985533;28;20407;-74
2023/05/25 02:32:58;;;;;;;14.02;3.97;;;7.30;99.90;;;5.94;100.00;98292.69;4986276;28;20086;-72
2023/05/25 02:35:27;;;;;;;12.63;3.92;;;7.30;99.90;;;5.81;100.00;98291.97;4977857;28;20137;-72
2023/05/25 02:37:55;;;;;;;16.30;4.20;;;7.30;99.90;;;5.63;100.00;98290.47;4973291;28;20074;-72
2023/05/25 02:40:22;;;;;;;11.52;4.07;;;7.20;99.90;;;5.77;100.00;98300.59;4988441;28;20061;-72
2023/05/25 02:42:49;;;;;;;12.27;4.20;;;7.20;99.90;;;5.74;100.00;98293.78;4991182;28;20052;-72
2023/05/25 02:45:16;;;;;;;13.85;3.53;;;7.10;99.90;;;5.63;100.00;98299.06;4990286;28;20081;-72
2023/05/25 02:47:44;;;;;;;13.38;3.90;;;7.10;99.90;;;5.43;100.00;98307.00;4971372;28;20054;-72
2023/05/25 02:50:11;;;;;;;13.32;3.78;;;7.10;99.90;;;5.50;100.00;98319.81;4975381;28;20478;-72
2023/05/25 02:52:38;;;;;;;13.95;4.40;;;7.00;99.90;;;5.41;100.00;98323.34;4985481;28;20117;-72
2023/05/25 02:55:08;;;;;;;11.77;3.97;;;7.00;99.90;;;5.42;100.00;98320.72;4970799;28;20689;-72
2023/05/25 02:57:37;;;;;;;8.75;3.53;;;7.00;99.90;;;5.56;100.00;98318.00;4986189;28;20050;-72
2023/05/25 03:00:06;;;;;;;16.77;4.18;;;7.00;99.90;;;5.43;100.00;98321.59;4986193;28;20061;-72
2023/05/25 03:02:33;;;;;;;14.40;3.72;;;6.90;99.90;;;5.26;100.00;98311.44;4978350;28;20058;-73
2023/05/25 03:05:01;;;;;;;9.25;4.15;;;6.90;99.90;;;5.47;100.00;98317.25;4988441;28;20082;-72
2023/05/25 03:07:30;;;;;;;13.38;4.88;;;6.90;99.90;;;5.69;100.00;98317.88;4969371;28;20102;-74
2023/05/25 03:09:58;;;;;;;12.50;4.00;;;6.90;99.90;;;5.39;100.00;98310.47;4949588;28;20515;-74
2023/05/25 03:12:25;;;;;;;10.05;3.83;;;6.90;99.90;;;5.13;100.00;98309.84;4967759;28;20061;-75
2023/05/25 03:14:52;;;;;;;10.05;3.10;;;6.80;99.90;;;5.05;100.00;98307.34;4988824;28;20046;-74
2023/05/25 03:17:19;;;;;;;13.90;4.00;;;6.60;99.90;;;5.08;100.00;98312.47;4972136;28;20483;-74
2023/05/25 03:19:46;;;;;;;10.77;3.63;;;6.60;99.90;;;5.23;100.00;98322.63;4981723;28;20054;-73
2023/05/25 03:22:13;;;;;;;17.38;4.53;;;6.50;99.90;;;5.40;100.00;98326.75;4983390;28;20089;-74
2023/05/25 03:24:40;;;;;;;15.43;4.22;;;6.60;99.90;;;5.44;100.00;98337.00;4990937;28;20046;-74
2023/05/25 03:27:07;;;;;;;11.68;4.32;;;6.60;99.90;;;5.34;100.00;98335.41;4986977;28;20053;-74
2023/05/25 03:29:34;;;;;;;15.77;4.57;;;6.70;99.90;;;5.48;100.00;98344.72;4981654;28;20508;-74
2023/05/25 03:32:02;;;;;;;12.50;3.65;;;6.70;99.90;;;5.53;100.00;98346.38;4985685;28;20059;-74
2023/05/25 03:34:29;;;;;;;14.10;3.83;;;6.70;99.90;;;5.58;100.00;98347.16;4981872;28;20055;-71
2023/05/25 03:36:56;;;;;;;10.52;3.47;;;6.80;99.90;;;5.37;100.00;98349.97;4947656;28;20058;-73
2023/05/25 03:39:23;;;;;;;9.05;3.60;;;6.80;99.90;;;5.38;100.00;98346.50;4986147;28;20423;-74
2023/05/25 03:41:50;;;;;;;9.77;3.63;;;6.70;99.90;;;5.31;100.00;98352.59;4973382;28;20050;-74
2023/05/25 03:44:18;;;;;;;13.77;4.28;;;6.70;99.90;;;5.52;100.00;98359.25;4988863;28;20772;-74
2023/05/25 03:46:45;;;;;;;9.93;3.70;;;6.70;99.90;;;5.61;100.00;98366.88;4988976;28;20077;-74
2023/05/25 03:49:12;;;;;;;10.65;3.85;;;6.80;99.90;;;5.60;100.00;98360.88;4984478;28;20050;-74
2023/05/25 03:51:41;;;;;;;12.05;3.78;;;6.80;99.90;;;5.50;100.00;98356.72;4984349;28;20113;-75
2023/05/25 03:54:08;;;;;;;9.43;3.58;;;6.80;99.90;;;5.37;100.00;98360.25;4984262;28;20121;-74
2023/05/25 03:56:35;;;;;;;14.77;4.80;;;6.80;99.90;;;5.28;100.00;98363.78;4985167;28;20050;-73
2023/05/25 03:59:03;;;;;;;14.45;3.65;;;6.80;99.90;;;5.16;100.00;98367.31;4978286;28;20085;-74
2023/05/25 04:01:30;;;;;;;11.18;4.28;;;6.70;99.90;;;5.06;100.00;98363.09;4984418;28;20145;-74
2023/05/25 04:03:57;;;;;;;12.32;4.05;;;6.50;99.90;;;4.93;100.00;98370.06;4987059;28;20051;-74
2023/05/25 04:06:24;;;;;;;8.75;3.22;;;6.40;99.90;;;5.03;100.00;98363.97;4992370;28;20046;-74
2023/05/25 04:08:51;;;;;;;13.05;4.18;;;6.30;99.90;;;5.16;100.00;98375.03;4947423;28;20077;-74
2023/05/25 04:11:19;;;;;;;9.73;3.30;;;6.40;99.90;;;5.34;100.00;98381.75;4968656;28;21957;-74
2023/05/25 04:13:47;;;;;;;12.00;3.75;;;6.50;99.90;;;5.52;100.00;98392.72;4967006;28;20058;-74
2023/05/25 04:16:14;;;;;;;8.32;3.13;;;6.60;99.90;;;5.42;100.00;98394.53;5007516;28;20145;-74
2023/05/25 04:18:42;;;;;;;10.60;3.88;;;6.70;99.90;;;5.52;100.00;98392.72;4982024;28;20054;-74
2023/05/25 04:21:09;;;;;;;9.85;3.60;;;6.80;99.90;;;5.49;100.00;98392.75;5003168;28;20109;-74
2023/05/25 04:23:36;;;;;;;11.65;3.65;;;6.80;99.90;;;5.51;100.00;98399.59;5009615;28;20072;-73
2023/05/25 04:26:04;;;;;;;12.90;4.18;;;6.80;99.90;;;5.61;100.00;98400.38;5005527;28;20512;-74
2023/05/25 04:28:32;;;;;;;10.75;3.72;;;6.80;99.90;;;5.79;100.00;98407.94;5008982;28;20140;-73
2023/05/25 04:30:59;;;;;;;14.10;4.00;;;6.90;99.90;;;5.95;100.00;98407.78;5006269;28;20049;-75
2023/05/25 04:33:28;;;;;;;14.85;4.38;;;7.00;99.90;;;6.11;100.00;98411.06;4995411;28;20510;-74
2023/05/25 04:35:58;;;;;;;8.50;4.03;;;7.10;99.90;;;6.11;100.00;98404.16;5009662;28;20064;-74
2023/05/25 04:38:25;;;;;;;10.55;3.90;;;7.20;99.90;;;6.21;100.00;98415.25;4995939;28;20101;-74
2023/05/25 04:40:52;;;;;;;9.60;3.40;;;7.20;99.90;;;6.38;100.00;98417.63;4979174;28;20061;-74
2023/05/25 04:43:20;;;;;;;11.68;3.80;;;7.40;99.90;;;6.48;100.00;98412.34;5006425;28;20042;-74
2023/05/25 04:45:47;;;;;;;13.13;4.53;;;7.40;99.90;;;6.58;100.00;98414.78;5003596;28;20655;-73
2023/05/25 04:48:14;;;;;;;15.02;5.25;;;7.50;99.90;;;6.51;100.00;98408.00;4983692;28;20569;-75
2023/05/25 04:50:41;;;;;;;14.20;4.88;;;7.60;99.90;;;6.62;100.00;98412.16;5003589;28;20077;-74
2023/05/25 04:53:09;;;;;;;11.40;4.72;;;7.70;99.90;;;6.69;100.00;98418.94;5004059;28;20186;-75
2023/05/25 04:55:38;;;;;;;8.93;4.35;;;7.70;99.90;;;6.83;100.00;98415.31;5004867;28;20128;-74
2023/05/25 04:58:06;;;;;;;9.75;5.10;;;7.80;99.90;;;6.95;100.00;98417.69;4992177;28;20053;-74
2023/05/25 05:00:33;;;;;;;16.40;6.18;;;7.90;99.90;;;7.00;100.00;98413.34;5001374;28;20046;-74
2023/05/25 05:03:00;;;;;;;14.57;5.22;;;8.00;99.90;;;7.15;100.00;98424.31;5005002;28;20101;-74
2023/05/25 05:05:27;;;;;;;14.50;5.75;;;8.00;99.90;;;7.28;100.00;98426.69;4994537;28;20060;-74
2023/05/25 05:07:54;;;;;;;13.70;5.95;;;8.20;99.90;;;7.34;100.00;98417.97;5002906;28;20605;-74
2023/05/25 05:10:21;;;;;;;15.38;5.70;;;8.20;99.90;;;7.37;100.00;98422.22;5003791;28;20129;-73
2023/05/25 05:12:49;;;;;;;13.25;6.13;;;8.20;99.90;;;7.49;100.00;98419.47;5000189;28;20120;-74
2023/05/25 05:15:17;;;;;;;14.05;5.15;;;8.30;99.90;;;7.53;100.00;98424.53;5005236;28;20612;-74
2023/05/25 05:17:45;;;;;;;12.90;5.38;;;8.50;99.90;;;7.66;100.00;98421.75;5003968;28;20062;-73
2023/05/25 05:20:12;;;;;;;13.25;4.80;;;8.60;99.90;;;7.81;100.00;98420.63;4990246;28;20459;-74
2023/05/25 05:22:39;;;;;;;13.85;4.95;;;8.70;99.90;;;7.88;100.00;98415.31;5000732;28;20050;-74
2023/05/25 05:25:07;;;;;;;11.07;4.65;;;8.80;99.90;;;8.13;100.00;98412.28;5006276;28;20048;-74
2023/05/25 05:27:34;;;;;;;12.73;4.55;;;8.90;99.90;;;8.32;100.00;98420.50;5004177;28;20046;-73
2023/05/25 05:30:02;;;;;;;15.30;4.72;;;9.00;99.90;;;8.53;100.00;98409.78;5000725;28;20046;-74
2023/05/25 05:32:30;;;;;;;10.50;4.63;;;9.20;99.90;;;8.50;100.00;98398.63;4998621;28;20070;-73
2023/05/25 05:34:57;;;;;;;10.38;4.75;;;9.30;99.90;;;8.77;100.00;98389.41;4988312;28;20549;-74
2023/05/25 05:37:24;;;;;;;11.00;4.28;;;9.50;99.90;;;8.88;100.00;98386.59;4977808;28;20077;-74
2023/05/25 05:39:52;;;;;;;13.50;4.13;;;9.60;99.90;;;9.04;100.00;98374.13;4994508;28;20121;-74
2023/05/25 05:42:19;;;;;;;12.35;4.72;;;9.70;99.90;;;9.06;100.00;98374.97;5001631;28;20168;-75
2023/05/25 05:44:46;;;;;;;12.38;3.83;;;9.80;99.90;;;9.05;100.00;98368.06;5001786;28;20058;-73
2023/05/25 05:47:13;;;;;;;10.43;3.65;;;9.90;99.90;;;9.23;100.00;98361.59;5006716;28;20057;-73
2023/05/25 05:49:40;;;;;;;11.98;3.72;;;9.90;99.90;;;9.44;100.00;98355.84;5004618;28;20134;-73
2023/05/25 05:52:09;;;;;;;8.60;3.63;;;10.10;99.90;;;9.40;100.00;98356.84;4982220;28;20568;-74
2023/05/25 05:54:36;;;;;;;16.17;4.55;;;10.30;99.90;;;9.53;100.00;98345.25;5008162;28;20506;-74
2023/05/25 05:57:03;;;;;;;11.82;3.80;;;10.30;99.90;;;9.50;100.00;98341.91;5012080;28;20554;-74
2023/05/25 05:59:30;;;;;;;12.65;4.28;;;10.40;99.90;;;9.69;100.00;98342.25;5000181;28;20072;-73
2023/05/25 06:01:57;;;;;;;10.20;3.25;;;10.40;99.90;;;9.72;100.00;98327.50;4998726;28;20085;-73
2023/05/25 06:04:27;;;;;;;10.63;3.70;;;10.50;99.90;;;9.79;100.00;98318.66;5007233;28;20076;-74
2023/05/25 06:06:58;;;;;;;10.48;3.58;;;10.60;99.90;;;9.96;100.00;98317.31;5014436;28;20053;-73
2023/05/25 06:09:25;;;;;;;10.45;3.60;;;10.70;99.90;;;9.91;100.00;98312.25;5011851;28;20054;-75
2023/05/25 06:11:53;;;;;;;15.23;3.42;;;10.70;99.90;;;10.09;100.00;98310.06;4976835;28;20045;-74
2023/05/25 06:14:20;;;;;;;11.70;3.53;;;10.80;99.90;;;10.16;100.00;98312.41;5000481;28;20046;-74
2023/05/25 06:16:47;;;;;;;9.18;2.63;;;10.90;99.90;;;10.39;100.00;98308.31;5013950;28;20108;-75
2023/05/25 06:19:14;;;;;;;12.77;3.75;;;11.10;99.90;;;10.56;100.00;98306.06;5001704;28;20053;-74
2023/05/25 06:21:44;;;;;;;12.80;3.85;;;11.20;99.90;;;10.53;100.00;98300.97;4997022;28;20399;-74
2023/05/25 06:24:11;;;;;;;10.65;3.25;;;11.30;99.90;;;10.58;100.00;98304.28;5005918;28;20141;-74
2023/05/25 06:26:38;;;;;;;10.00;3.65;;;11.40;99.90;;;10.57;100.00;98304.31;5006837;28;20045;-75
2023/05/25 06:29:05;;;;;;;10.25;3.55;;;11.40;99.90;;;10.78;100.00;98295.84;5004320;28;20125;-73
2023/05/25 06:31:32;;;;;;;13.27;3.53;;;11.60;99.90;;;10.80;100.00;98294.06;4991939;28;20042;-74
2023/05/25 06:33:59;;;;;;;13.48;3.63;;;11.60;99.90;;;11.07;100.00;98286.28;5003980;28;20049;-74
2023/05/25 06:36:26;;;;;;;13.85;3.75;;;11.70;99.90;;;11.23;100.00;98295.25;5012269;28;20049;-74
2023/05/25 06:38:54;;;;;;;11.32;3.13;;;11.80;99.90;;;11.28;100.00;98297.69;5011379;28;20514;-74
2023/05/25 06:41:21;;;;;;;7.57;2.88;;;12.00;99.90;;;11.34;100.00;98289.69;5005460;28;20111;-73
2023/05/25 06:43:48;;;;;;;18.13;3.42;;;12.10;99.90;;;11.29;100.00;98283.81;5014929;28;20128;-74
2023/05/25 06:46:16;;;;;;;11.75;3.30;;;12.00;99.90;;;11.33;100.00;98277.56;4999148;28;20136;-73
2023/05/25 06:48:44;;;;;;;7.50;3.28;;;12.10;99.90;;;11.28;100.00;98274.28;5013162;28;20130;-74
2023/05/25 06:51:12;;;;;;;8.95;3.10;;;12.20;99.90;;;11.65;100.00;98278.19;5003556;28;20156;-74
2023/05/25 06:53:39;;;;;;;10.48;2.92;;;12.30;99.90;;;11.49;100.00;98272.69;4994977;28;20046;-73
2023/05/25 06:56:06;;;;;;;11.98;3.03;;;12.30;99.90;;;11.68;100.00;98270.31;4994506;28;20116;-74
2023/05/25 06:58:34;;;;;;;13.15;2.88;;;12.40;99.90;;;11.92;100.00;98274.63;5007189;28;20117;-74
2023/05/25 07:01:01;;;;;;;9.18;2.75;;;12.60;99.90;;;11.78;100.00;98261.25;4978740;28;20054;-74
2023/05/25 07:03:29;;;;;;;9.20;3.00;;;12.70;99.90;;;11.75;100.00;98269.19;5008688;28;20381;-74
2023/05/25 07:05:56;;;;;;;7.20;2.92;;;12.80;99.90;;;12.14;100.00;98268.66;5016954;28;20541;-74
2023/05/25 07:08:24;;;;;;;8.98;3.10;;;12.80;99.90;;;12.29;100.00;98270.66;4997521;28;20070;-74
2023/05/25 07:10:51;;;;;;;16.30;3.30;;;13.00;99.90;;;12.48;100.00;98267.34;5008349;28;20105;-74
2023/05/25 07:13:18;;;;;;;15.27;3.35;;;13.20;99.90;;;12.63;100.00;98263.28;4992446;28;20109;-74
2023/05/25 07:15:46;;;;;;;13.18;3.28;;;13.20;99.90;;;12.50;100.00;98265.53;4992325;28;20049;-74
2023/05/25 07:18:14;;;;;;;10.27;2.80;;;13.30;99.90;;;12.65;100.00;98269.28;5003434;28;20113;-74
2023/05/25 07:20:41;;;;;;;11.38;2.78;;;13.40;99.90;;;12.56;100.00;98266.13;5006252;28;20049;-74
2023/05/25 07:23:10;;;;;;;7.57;2.83;;;13.50;99.90;;;12.93;100.00;98263.78;5007437;28;20061;-75
2023/05/25 07:25:38;;;;;;;10.35;3.25;;;13.60;99.90;;;12.92;100.00;98262.09;4993896;28;20072;-74
2023/05/25 07:28:05;;;;;;;7.78;2.50;;;13.70;99.90;;;12.81;100.00;98261.69;5012364;28;20093;-75
2023/05/25 07:30:33;;;;;;;11.07;2.92;;;13.80;99.90;;;13.00;100.00;98260.03;5010179;28;20046;-74
2023/05/25 07:33:00;;;;;;;8.77;2.90;;;13.90;99.90;;;12.90;100.00;98264.75;4987823;28;20046;-74
2023/05/25 07:35:28;;;;;;;11.02;2.50;;;13.80;99.90;;;12.93;100.00;98263.78;4982222;28;20485;-74
2023/05/25 07:37:59;;;;;;;10.07;3.13;;;13.90;99.90;;;13.19;100.00;98254.91;4987234;28;20129;-75
2023/05/25 07:40:27;;;;;;;9.63;2.65;;;14.00;99.90;;;13.21;100.00;98252.22;5007984;28;20061;-74
2023/05/25 07:42:54;;;;;;;10.77;2.85;;;14.10;99.90;;;13.49;100.00;98257.13;5005769;28;20100;-75
2023/05/25 07:45:21;;;;;;;11.82;3.00;;;14.30;99.90;;;13.35;100.00;98247.31;5006462;28;20070;-74
2023/05/25 07:47:49;;;;;;;8.60;2.80;;;14.40;99.90;;;13.55;100.00;98256.88;5007752;28;20423;-75
2023/05/25 07:50:19;;;;;;;7.90;1.90;;;14.50;99.90;;;13.58;100.00;98254.13;5007906;28;20060;-75
2023/05/25 07:52:46;;;;;;;9.48;2.47;;;14.40;99.90;;;13.64;100.00;98261.69;5006290;28;20057;-74
2023/05/25 07:55:13;;;;;;;10.75;2.50;;;14.60;99.90;;;13.62;100.00;98252.25;5002642;28;20108;-74
2023/05/25 07:57:41;;;;;;;12.20;2.80;;;14.60;99.90;;;13.74;100.00;98251.69;5001602;28;20124;-75
2023/05/25 08:00:09;;;;;;;9.50;2.80;;;14.70;99.90;;;14.01;100.00;98255.66;4992691;28;20061;-74
2023/05/25 08:02:39;;;;;;;6.50;2.05;;;14.80;99.90;;;14.06;100.00;98258.06;4991240;28;20050;-75
2023/05/25 08:05:08;;;;;;;9.15;2.85;;;14.90;99.90;;;13.78;100.00;98261.91;5009151;28;20172;-75
2023/05/25 08:07:36;;;;;;;10.02;3.05;;;14.90;99.90;;;13.76;100.00;98262.91;5010191;28;20104;-74
2023/05/25 08:10:05;;;;;;;11.00;2.78;;;14.80;99.90;;;14.06;100.00;98265.88;4991146;28;20061;-74
2023/05/25 08:12:32;;;;;;;10.25;3.28;;;14.80;99.90;;;14.13;100.00;98266.44;5006727;28;20046;-73
2023/05/25 08:15:15;;;;;;;12.77;2.95;;;15.00;99.90;;;14.61;100.00;98267.72;5007027;28;20148;-73
2023/05/25 08:17:42;;;;;;;8.70;2.90;;;15.20;99.90;;;14.24;100.00;98266.81;4994622;28;20503;-73
2023/05/25 08:20:11;;;;;;;10.35;2.78;;;15.40;99.90;;;14.24;100.00;98269.41;4999427;28;20046;-72
2023/05/25 08:22:38;;;;;;;7.20;2.50;;;15.40;99.90;;;14.19;100.00;98255.72;5008434;28;20042;-73
2023/05/25 08:25:06;;;;;;;13.57;3.10;;;15.40;99.90;;;14.28;100.00;98275.31;4992770;28;20066;-73
2023/05/25 08:27:34;;;;;;;12.82;2.83;;;15.30;99.90;;;14.41;100.00;98269.47;4997599;28;20046;-72
2023/05/25 08:30:04;;;;;;;13.60;2.97;;;15.20;99.90;;;14.39;100.00;98273.94;5013075;28;20528;-73
2023/05/25 08:32:32;;;;;;;10.73;3.05;;;15.30;99.90;;;14.99;100.00;98263.22;5012828;28;20045;-73
2023/05/25 08:35:03;;;;;;;12.30;2.60;;;15.40;99.90;;;15.18;100.00;98276.22;5003100;28;20062;-73
2023/05/25 08:37:34;;;;;;;7.70;2.83;;;15.40;99.90;;;15.47;100.00;98272.13;5012481;28;20049;-74
2023/05/25 08:40:01;;;;;;;11.82;3.20;;;15.60;99.90;;;15.51;100.00;98280.69;5006800;28;20047;-74
2023/05/25 08:42:28;;;;;;;9.52;2.85;;;15.70;99.90;;;15.67;100.00;98278.13;5003453;28;20442;-73
2023/05/25 08:44:56;;;;;;;10.60;2.92;;;15.90;99.90;;;15.99;100.00;98280.84;4994105;28;20054;-74
2023/05/25 08:47:23;;;;;;;9.27;2.92;;;16.20;99.90;;;16.19;100.00;98267.50;5012213;28;20129;-74
2023/05/25 08:49:52;;;;;;;10.35;2.47;;;16.50;99.90;;;17.19;100.00;98279.44;4988983;28;20050;-74
2023/05/25 08:52:23;;;;;;;10.65;2.38;;;17.10;99.90;;;17.23;100.00;98266.06;4993735;28;20045;-73
2023/05/25 08:54:54;;;;;;;9.00;2.40;;;17.70;99.90;;;17.59;100.00;98275.31;4991990;28;20046;-73
2023/05/25 08:57:36;;;;;;;7.45;2.10;;;18.00;99.90;;;17.65;100.00;98268.84;4977114;28;20073;-74
2023/05/25 09:00:10;;;;;;;9.13;2.20;;;18.60;99.90;;;16.95;100.00;98261.56;5008841;28;20168;-73
2023/05/25 09:03:08;;;;;;;8.35;2.30;;;18.90;99.10;;;17.91;100.00;98262.88;5000107;28;20050;-75
2023/05/25 09:05:35;;;;;;;8.90;2.42;;;19.10;99.90;;;17.38;100.00;98261.69;5002777;28;20054;-75
2023/05/25 09:08:09;;;;;;;10.52;2.22;;;19.40;98.10;;;17.26;100.00;98258.00;4981233;28;20112;-73
2023/05/25 09:10:37;;;;;;;10.35;2.20;;;19.50;98.00;;;17.35;100.00;98262.69;4995391;28;20088;-73
2023/05/25 09:13:05;;;;;;;15.13;2.95;;;19.60;97.10;;;17.91;100.00;98262.88;4992668;28;20409;-72
2023/05/25 09:15:48;;;;;;;7.57;2.08;;;19.70;97.60;;;17.72;100.00;98257.00;5005597;28;20060;-72
2023/05/25 09:18:15;;;;;;;6.07;1.80;;;20.20;96.20;;;18.28;100.00;98259.75;4992223;28;20490;-73
2023/05/25 09:20:42;;;;;;;8.20;1.98;;;20.70;95.80;;;18.54;100.00;98253.69;5008684;28;20434;-73
2023/05/25 09:23:14;;;;;;;6.63;1.40;;;20.40;94.60;;;18.48;100.00;98251.44;5000912;28;20586;-73
2023/05/25 09:25:43;;;;;;;11.45;2.58;;;20.70;93.70;;;18.39;100.00;98252.03;4983955;28;20117;-73
2023/05/25 09:28:10;;;;;;;10.57;1.92;;;21.00;92.50;;;17.91;100.00;98235.78;4982151;28;20784;-73
2023/05/25 09:30:40;;;;;;;8.38;2.42;;;20.90;92.30;;;19.00;100.00;98247.25;4994404;28;20061;-73
2023/05/25 09:33:12;;;;;;;8.55;2.00;;;20.80;93.10;;;18.92;100.00;98262.66;4991874;28;20057;-73
2023/05/25 09:35:40;;;;;;;10.93;2.13;;;21.00;91.90;;;18.21;100.00;98261.06;4995141;28;20050;-73
2023/05/25 09:38:07;;;;;;;8.35;1.77;;;20.90;91.30;;;18.62;100.00;98257.59;5011018;28;20152;-73
2023/05/25 09:40:35;;;;;;;7.90;1.50;;;20.40;91.30;;;18.83;100.00;98261.47;5011817;28;20072;-74
2023/05/25 09:43:03;;;;;;;6.47;1.95;;;20.70;91.10;;;18.81;100.00;98266.84;5005748;28;20140;-74
2023/05/25 09:45:30;;;;;;;7.97;2.17;;;21.00;90.70;;;19.19;100.00;98267.91;5008215;28;20425;-73
2023/05/25 09:47:58;;;;;;;11.00;2.00;;;21.00;91.40;;;19.78;100.00;98267.44;5001915;28;20054;-74
2023/05/25 09:50:28;;;;;;;9.38;2.45;;;21.40;91.60;;;19.19;100.00;98260.84;4980260;28;20053;-74
2023/05/25 09:52:59;;;;;;;7.00;2.00;;;21.30;91.40;;;19.39;100.00;98274.47;5005790;28;20065;-73
2023/05/25 09:55:27;;;;;;;8.52;2.15;;;21.40;90.80;;;19.23;100.00;98272.00;5007612;28;20053;-73
2023/05/25 09:58:14;;;;;;;7.95;2.05;;;21.20;90.30;;;18.74;100.00;98257.63;4993401;28;20422;-74
2023/05/25 10:00:42;;;;;;;9.23;2.20;;;21.00;90.80;;;19.27;100.00;98265.56;5008843;28;20070;-75
2023/05/25 10:03:13;;;;;;;7.55;2.22;;;20.80;90.20;;;19.67;100.00;98256.78;5010137;28;20219;-73
2023/05/25 10:05:41;;;;;;;10.30;2.33;;;21.20;90.30;;;19.60;100.00;98267.72;5007270;28;20096;-74
2023/05/25 10:08:10;;;;;;;13.48;2.33;;;21.30;88.90;;;19.59;100.00;98271.31;5002352;28;20053;-75
2023/05/25 10:10:39;;;;;;;8.48;2.75;;;21.20;89.80;;;21.02;100.00;98258.53;4985055;28;20048;-75
2023/05/25 10:13:08;;;;;;;9.30;2.22;;;21.50;90.50;;;20.85;98.85;98259.81;4989669;28;20045;-76
2023/05/25 10:15:42;;;;;;;9.32;2.30;;;22.00;89.50;;;20.11;99.23;98258.97;5008435;28;20497;-74
2023/05/25 10:18:12;;;;;;;8.18;2.35;;;21.80;88.10;;;20.32;97.44;98263.66;4974969;28;20054;-74
2023/05/25 10:20:41;;;;;;;7.95;2.40;;;21.40;87.40;;;19.78;100.00;98262.19;5006777;28;20041;-74
2023/05/25 10:23:19;;;;;;;11.27;2.10;;;21.50;87.50;;;21.08;100.00;98249.34;4997751;28;20433;-74